sensor_id;sensor_type;location;lat;lon;timestamp;temperature;humidity
13521;DHT22;6832;51.186;3.236;2023-04-06T00:02:07;17.40;52.80
13521;DHT22;6832;51.186;3.236;2023-04-06T00:04:34;17.30;52.70
13521;DHT22;6832;51.186;3.236;2023-04-06T00:07:03;17.30;52.70
13521;DHT22;6832;51.186;3.236;2023-04-06T00:09:30;17.30;52.70
13521;DHT22;6832;51.186;3.236;2023-04-06T00:11:57;17.30;52.70
13521;DHT22;6832;51.186;3.236;2023-04-06T00:14:24;17.30;52.70
13521;DHT22;6832;51.186;3.236;2023-04-06T00:16:51;17.30;52.70
13521;DHT22;6832;51.186;3.236;2023-04-06T00:19:18;17.30;52.70
13521;DHT22;6832;51.186;3.236;2023-04-06T00:21:45;17.30;52.70
13521;DHT22;6832;51.186;3.236;2023-04-06T00:24:13;17.20;52.70
13521;DHT22;6832;51.186;3.236;2023-04-06T00:26:40;17.20;52.60
13521;DHT22;6832;51.186;3.236;2023-04-06T00:29:08;17.30;52.70
13521;DHT22;6832;51.186;3.236;2023-04-06T00:31:35;17.20;52.60
13521;DHT22;6832;51.186;3.236;2023-04-06T00:34:02;17.20;52.70
13521;DHT22;6832;51.186;3.236;2023-04-06T00:36:29;17.20;52.60
13521;DHT22;6832;51.186;3.236;2023-04-06T00:38:56;17.20;52.70
13521;DHT22;6832;51.186;3.236;2023-04-06T00:41:24;17.20;52.70
13521;DHT22;6832;51.186;3.236;2023-04-06T00:43:53;17.20;52.70
13521;DHT22;6832;51.186;3.236;2023-04-06T00:46:20;17.20;52.70
13521;DHT22;6832;51.186;3.236;2023-04-06T00:48:47;17.20;52.70
13521;DHT22;6832;51.186;3.236;2023-04-06T00:51:14;17.20;52.70
13521;DHT22;6832;51.186;3.236;2023-04-06T00:53:41;17.20;52.70
13521;DHT22;6832;51.186;3.236;2023-04-06T00:56:10;17.10;52.60
13521;DHT22;6832;51.186;3.236;2023-04-06T00:58:38;17.10;52.60
13521;DHT22;6832;51.186;3.236;2023-04-06T01:01:06;17.10;52.60
13521;DHT22;6832;51.186;3.236;2023-04-06T01:03:33;17.10;52.60
13521;DHT22;6832;51.186;3.236;2023-04-06T01:06:00;17.10;52.60
13521;DHT22;6832;51.186;3.236;2023-04-06T01:08:27;17.10;52.60
13521;DHT22;6832;51.186;3.236;2023-04-06T01:10:54;17.10;52.60
13521;DHT22;6832;51.186;3.236;2023-04-06T01:13:21;17.10;52.60
13521;DHT22;6832;51.186;3.236;2023-04-06T01:15:50;17.10;52.60
13521;DHT22;6832;51.186;3.236;2023-04-06T01:18:17;17.00;52.60
13521;DHT22;6832;51.186;3.236;2023-04-06T01:20:44;17.00;52.60
13521;DHT22;6832;51.186;3.236;2023-04-06T01:23:12;17.00;52.60
13521;DHT22;6832;51.186;3.236;2023-04-06T01:25:39;17.00;52.60
13521;DHT22;6832;51.186;3.236;2023-04-06T01:28:06;17.00;52.60
13521;DHT22;6832;51.186;3.236;2023-04-06T01:30:33;17.00;52.60
13521;DHT22;6832;51.186;3.236;2023-04-06T01:33:00;17.00;52.60
13521;DHT22;6832;51.186;3.236;2023-04-06T01:35:28;17.00;52.60
13521;DHT22;6832;51.186;3.236;2023-04-06T01:37:55;17.00;52.60
13521;DHT22;6832;51.186;3.236;2023-04-06T01:40:24;17.00;52.60
13521;DHT22;6832;51.186;3.236;2023-04-06T01:42:51;16.90;52.40
13521;DHT22;6832;51.186;3.236;2023-04-06T01:45:18;17.00;52.60
13521;DHT22;6832;51.186;3.236;2023-04-06T01:47:45;16.90;52.50
13521;DHT22;6832;51.186;3.236;2023-04-06T01:50:12;16.80;52.40
13521;DHT22;6832;51.186;3.236;2023-04-06T01:52:39;16.90;52.50
13521;DHT22;6832;51.186;3.236;2023-04-06T01:55:06;16.90;52.50
13521;DHT22;6832;51.186;3.236;2023-04-06T01:57:35;16.90;52.50
13521;DHT22;6832;51.186;3.236;2023-04-06T02:00:02;16.90;52.50
13521;DHT22;6832;51.186;3.236;2023-04-06T02:02:29;16.90;52.50
13521;DHT22;6832;51.186;3.236;2023-04-06T02:04:56;16.90;52.50
13521;DHT22;6832;51.186;3.236;2023-04-06T02:07:23;16.90;52.50
13521;DHT22;6832;51.186;3.236;2023-04-06T02:09:53;16.80;52.40
13521;DHT22;6832;51.186;3.236;2023-04-06T02:12:20;16.80;52.40
13521;DHT22;6832;51.186;3.236;2023-04-06T02:14:49;16.80;52.40
13521;DHT22;6832;51.186;3.236;2023-04-06T02:17:16;16.80;52.40
13521;DHT22;6832;51.186;3.236;2023-04-06T02:19:43;16.80;52.40
13521;DHT22;6832;51.186;3.236;2023-04-06T02:22:10;16.80;52.40
13521;DHT22;6832;51.186;3.236;2023-04-06T02:24:37;16.80;52.40
13521;DHT22;6832;51.186;3.236;2023-04-06T02:27:04;16.80;52.40
13521;DHT22;6832;51.186;3.236;2023-04-06T02:29:31;16.80;52.50
13521;DHT22;6832;51.186;3.236;2023-04-06T02:31:59;16.80;52.40
13521;DHT22;6832;51.186;3.236;2023-04-06T02:34:26;16.80;52.40
13521;DHT22;6832;51.186;3.236;2023-04-06T02:36:55;16.80;52.50
13521;DHT22;6832;51.186;3.236;2023-04-06T02:39:22;16.70;52.40
13521;DHT22;6832;51.186;3.236;2023-04-06T02:41:49;16.70;52.40
13521;DHT22;6832;51.186;3.236;2023-04-06T02:44:16;16.70;52.40
13521;DHT22;6832;51.186;3.236;2023-04-06T02:46:43;16.70;52.40
13521;DHT22;6832;51.186;3.236;2023-04-06T02:49:11;16.70;52.40
13521;DHT22;6832;51.186;3.236;2023-04-06T02:51:38;16.70;52.40
13521;DHT22;6832;51.186;3.236;2023-04-06T02:54:05;16.70;52.40
13521;DHT22;6832;51.186;3.236;2023-04-06T02:56:32;16.70;52.40
13521;DHT22;6832;51.186;3.236;2023-04-06T02:58:59;16.70;52.40
13521;DHT22;6832;51.186;3.236;2023-04-06T03:01:26;16.70;52.40
13521;DHT22;6832;51.186;3.236;2023-04-06T03:03:53;16.70;52.40
13521;DHT22;6832;51.186;3.236;2023-04-06T03:06:23;16.70;52.40
13521;DHT22;6832;51.186;3.236;2023-04-06T03:08:50;16.70;52.40
13521;DHT22;6832;51.186;3.236;2023-04-06T03:11:17;16.60;52.30
13521;DHT22;6832;51.186;3.236;2023-04-06T03:13:44;16.60;52.30
13521;DHT22;6832;51.186;3.236;2023-04-06T03:16:11;16.60;52.40
13521;DHT22;6832;51.186;3.236;2023-04-06T03:18:38;16.60;52.40
13521;DHT22;6832;51.186;3.236;2023-04-06T03:21:05;16.60;52.30
13521;DHT22;6832;51.186;3.236;2023-04-06T03:23:34;16.60;52.40
13521;DHT22;6832;51.186;3.236;2023-04-06T03:26:01;16.70;52.50
13521;DHT22;6832;51.186;3.236;2023-04-06T03:28:28;16.60;52.40
13521;DHT22;6832;51.186;3.236;2023-04-06T03:30:55;16.60;52.40
13521;DHT22;6832;51.186;3.236;2023-04-06T03:33:22;16.60;52.40
13521;DHT22;6832;51.186;3.236;2023-04-06T03:35:49;16.60;52.40
13521;DHT22;6832;51.186;3.236;2023-04-06T03:38:16;16.60;52.40
13521;DHT22;6832;51.186;3.236;2023-04-06T03:40:45;16.60;52.40
13521;DHT22;6832;51.186;3.236;2023-04-06T03:43:13;16.60;52.40
13521;DHT22;6832;51.186;3.236;2023-04-06T03:45:40;16.50;52.30
13521;DHT22;6832;51.186;3.236;2023-04-06T03:48:07;16.50;52.40
13521;DHT22;6832;51.186;3.236;2023-04-06T03:50:34;16.50;52.40
13521;DHT22;6832;51.186;3.236;2023-04-06T03:53:01;16.50;52.40
13521;DHT22;6832;51.186;3.236;2023-04-06T03:55:28;16.50;52.40
13521;DHT22;6832;51.186;3.236;2023-04-06T03:57:57;16.50;52.50
13521;DHT22;6832;51.186;3.236;2023-04-06T04:00:24;16.50;52.40
13521;DHT22;6832;51.186;3.236;2023-04-06T04:02:51;16.50;52.40
13521;DHT22;6832;51.186;3.236;2023-04-06T04:05:18;16.50;52.50
13521;DHT22;6832;51.186;3.236;2023-04-06T04:07:50;16.50;52.50
13521;DHT22;6832;51.186;3.236;2023-04-06T04:10:17;16.50;52.50
13521;DHT22;6832;51.186;3.236;2023-04-06T04:12:44;16.50;52.50
13521;DHT22;6832;51.186;3.236;2023-04-06T04:15:13;16.50;52.50
13521;DHT22;6832;51.186;3.236;2023-04-06T04:17:40;16.50;52.50
13521;DHT22;6832;51.186;3.236;2023-04-06T04:20:07;16.50;52.50
13521;DHT22;6832;51.186;3.236;2023-04-06T04:22:34;16.50;52.50
13521;DHT22;6832;51.186;3.236;2023-04-06T04:25:01;16.50;52.50
13521;DHT22;6832;51.186;3.236;2023-04-06T04:27:28;16.50;52.50
13521;DHT22;6832;51.186;3.236;2023-04-06T04:29:55;16.50;52.50
13521;DHT22;6832;51.186;3.236;2023-04-06T04:32:24;16.50;52.50
13521;DHT22;6832;51.186;3.236;2023-04-06T04:34:52;16.50;52.50
13521;DHT22;6832;51.186;3.236;2023-04-06T04:37:19;16.50;52.50
13521;DHT22;6832;51.186;3.236;2023-04-06T04:39:46;16.50;52.50
13521;DHT22;6832;51.186;3.236;2023-04-06T04:42:13;16.50;52.50
13521;DHT22;6832;51.186;3.236;2023-04-06T04:44:41;16.50;52.50
13521;DHT22;6832;51.186;3.236;2023-04-06T04:47:08;16.40;52.40
13521;DHT22;6832;51.186;3.236;2023-04-06T04:49:36;16.50;52.50
13521;DHT22;6832;51.186;3.236;2023-04-06T04:52:03;16.40;52.40
13521;DHT22;6832;51.186;3.236;2023-04-06T04:54:30;16.50;52.50
13521;DHT22;6832;51.186;3.236;2023-04-06T04:56:57;16.50;52.50
13521;DHT22;6832;51.186;3.236;2023-04-06T04:59:27;16.40;52.50
13521;DHT22;6832;51.186;3.236;2023-04-06T05:01:55;16.50;52.50
13521;DHT22;6832;51.186;3.236;2023-04-06T05:04:22;16.40;52.50
13521;DHT22;6832;51.186;3.236;2023-04-06T05:06:51;16.40;52.50
13521;DHT22;6832;51.186;3.236;2023-04-06T05:09:17;16.40;52.50
13521;DHT22;6832;51.186;3.236;2023-04-06T05:11:44;16.40;52.50
13521;DHT22;6832;51.186;3.236;2023-04-06T05:14:11;16.40;52.50
13521;DHT22;6832;51.186;3.236;2023-04-06T05:16:38;16.40;52.50
13521;DHT22;6832;51.186;3.236;2023-04-06T05:19:05;16.40;52.50
13521;DHT22;6832;51.186;3.236;2023-04-06T05:21:32;16.40;52.50
13521;DHT22;6832;51.186;3.236;2023-04-06T05:24:02;16.40;52.50
13521;DHT22;6832;51.186;3.236;2023-04-06T05:26:29;16.40;52.50
13521;DHT22;6832;51.186;3.236;2023-04-06T05:28:56;16.40;52.60
13521;DHT22;6832;51.186;3.236;2023-04-06T05:31:23;16.40;52.60
13521;DHT22;6832;51.186;3.236;2023-04-06T05:33:51;16.40;52.60
13521;DHT22;6832;51.186;3.236;2023-04-06T05:36:18;16.40;52.60
13521;DHT22;6832;51.186;3.236;2023-04-06T05:38:44;16.40;52.60
13521;DHT22;6832;51.186;3.236;2023-04-06T05:41:13;16.40;52.60
13521;DHT22;6832;51.186;3.236;2023-04-06T05:43:40;16.40;52.60
13521;DHT22;6832;51.186;3.236;2023-04-06T05:46:07;16.40;53.10
13521;DHT22;6832;51.186;3.236;2023-04-06T05:48:34;16.40;52.60
13521;DHT22;6832;51.186;3.236;2023-04-06T05:51:04;16.40;52.60
13521;DHT22;6832;51.186;3.236;2023-04-06T05:53:33;16.40;52.60
13521;DHT22;6832;51.186;3.236;2023-04-06T05:56:01;16.30;52.50
13521;DHT22;6832;51.186;3.236;2023-04-06T05:58:29;16.30;52.60
13521;DHT22;6832;51.186;3.236;2023-04-06T06:00:57;16.30;52.60
13521;DHT22;6832;51.186;3.236;2023-04-06T06:03:25;16.30;52.60
13521;DHT22;6832;51.186;3.236;2023-04-06T06:05:52;16.30;52.60
13521;DHT22;6832;51.186;3.236;2023-04-06T06:08:19;16.30;52.60
13521;DHT22;6832;51.186;3.236;2023-04-06T06:10:49;16.30;52.60
13521;DHT22;6832;51.186;3.236;2023-04-06T06:13:16;16.40;52.70
13521;DHT22;6832;51.186;3.236;2023-04-06T06:15:46;16.30;52.60
13521;DHT22;6832;51.186;3.236;2023-04-06T06:18:13;16.30;52.60
13521;DHT22;6832;51.186;3.236;2023-04-06T06:20:40;16.30;52.60
13521;DHT22;6832;51.186;3.236;2023-04-06T06:23:07;16.40;52.70
13521;DHT22;6832;51.186;3.236;2023-04-06T06:25:34;16.30;52.60
13521;DHT22;6832;51.186;3.236;2023-04-06T06:28:01;16.30;52.60
13521;DHT22;6832;51.186;3.236;2023-04-06T06:30:28;16.30;52.60
13521;DHT22;6832;51.186;3.236;2023-04-06T06:32:57;16.30;52.60
13521;DHT22;6832;51.186;3.236;2023-04-06T06:35:24;16.30;52.60
13521;DHT22;6832;51.186;3.236;2023-04-06T06:37:51;16.30;52.60
13521;DHT22;6832;51.186;3.236;2023-04-06T06:40:18;16.30;52.60
13521;DHT22;6832;51.186;3.236;2023-04-06T06:42:50;16.30;52.60
13521;DHT22;6832;51.186;3.236;2023-04-06T06:45:18;16.30;52.60
13521;DHT22;6832;51.186;3.236;2023-04-06T06:47:45;16.30;52.60
13521;DHT22;6832;51.186;3.236;2023-04-06T06:50:14;16.30;52.70
13521;DHT22;6832;51.186;3.236;2023-04-06T06:52:41;16.30;52.80
13521;DHT22;6832;51.186;3.236;2023-04-06T06:55:09;16.30;52.80
13521;DHT22;6832;51.186;3.236;2023-04-06T06:57:36;16.30;52.80
13521;DHT22;6832;51.186;3.236;2023-04-06T07:00:05;16.30;52.70
13521;DHT22;6832;51.186;3.236;2023-04-06T07:02:34;16.30;52.80
13521;DHT22;6832;51.186;3.236;2023-04-06T07:05:02;16.30;52.70
13521;DHT22;6832;51.186;3.236;2023-04-06T07:07:32;16.30;52.70
13521;DHT22;6832;51.186;3.236;2023-04-06T07:09:59;16.30;52.80
13521;DHT22;6832;51.186;3.236;2023-04-06T07:12:26;16.30;52.80
13521;DHT22;6832;51.186;3.236;2023-04-06T07:14:54;16.30;52.80
13521;DHT22;6832;51.186;3.236;2023-04-06T07:17:21;16.10;52.60
13521;DHT22;6832;51.186;3.236;2023-04-06T07:19:48;16.20;52.70
13521;DHT22;6832;51.186;3.236;2023-04-06T07:22:16;16.20;52.70
13521;DHT22;6832;51.186;3.236;2023-04-06T07:24:44;16.20;52.70
13521;DHT22;6832;51.186;3.236;2023-04-06T07:27:11;16.20;52.70
13521;DHT22;6832;51.186;3.236;2023-04-06T07:29:40;16.20;52.70
13521;DHT22;6832;51.186;3.236;2023-04-06T07:32:07;16.20;52.70
13521;DHT22;6832;51.186;3.236;2023-04-06T07:34:35;16.20;52.70
13521;DHT22;6832;51.186;3.236;2023-04-06T07:37:02;16.20;52.70
13521;DHT22;6832;51.186;3.236;2023-04-06T07:39:29;16.20;52.70
13521;DHT22;6832;51.186;3.236;2023-04-06T07:41:57;16.20;52.70
13521;DHT22;6832;51.186;3.236;2023-04-06T07:44:24;16.20;52.70
13521;DHT22;6832;51.186;3.236;2023-04-06T07:46:51;16.20;52.70
13521;DHT22;6832;51.186;3.236;2023-04-06T07:49:18;16.20;52.70
13521;DHT22;6832;51.186;3.236;2023-04-06T07:51:46;16.20;52.70
13521;DHT22;6832;51.186;3.236;2023-04-06T07:54:13;16.20;52.70
13521;DHT22;6832;51.186;3.236;2023-04-06T07:56:40;16.20;52.80
13521;DHT22;6832;51.186;3.236;2023-04-06T07:59:09;16.20;52.80
13521;DHT22;6832;51.186;3.236;2023-04-06T08:01:36;16.20;52.80
13521;DHT22;6832;51.186;3.236;2023-04-06T08:04:04;16.20;52.80
13521;DHT22;6832;51.186;3.236;2023-04-06T08:06:34;16.30;52.80
13521;DHT22;6832;51.186;3.236;2023-04-06T08:09:02;16.20;52.80
13521;DHT22;6832;51.186;3.236;2023-04-06T08:11:29;16.20;52.80
13521;DHT22;6832;51.186;3.236;2023-04-06T08:13:56;16.30;52.90
13521;DHT22;6832;51.186;3.236;2023-04-06T08:16:25;16.20;52.80
13521;DHT22;6832;51.186;3.236;2023-04-06T08:18:52;16.30;52.90
13521;DHT22;6832;51.186;3.236;2023-04-06T08:21:18;16.30;52.90
13521;DHT22;6832;51.186;3.236;2023-04-06T08:23:46;16.20;52.80
13521;DHT22;6832;51.186;3.236;2023-04-06T08:26:13;16.20;52.80
13521;DHT22;6832;51.186;3.236;2023-04-06T08:28:40;16.30;52.90
13521;DHT22;6832;51.186;3.236;2023-04-06T08:31:07;16.30;53.50
13521;DHT22;6832;51.186;3.236;2023-04-06T08:33:35;16.30;53.00
13521;DHT22;6832;51.186;3.236;2023-04-06T08:36:09;16.30;52.90
13521;DHT22;6832;51.186;3.236;2023-04-06T08:38:36;16.30;52.90
13521;DHT22;6832;51.186;3.236;2023-04-06T08:41:13;16.30;52.90
13521;DHT22;6832;51.186;3.236;2023-04-06T08:43:43;16.20;52.90
13521;DHT22;6832;51.186;3.236;2023-04-06T08:46:11;16.30;53.00
13521;DHT22;6832;51.186;3.236;2023-04-06T08:48:41;16.30;53.00
13521;DHT22;6832;51.186;3.236;2023-04-06T08:51:09;16.30;53.00
13521;DHT22;6832;51.186;3.236;2023-04-06T08:53:37;16.20;52.90
13521;DHT22;6832;51.186;3.236;2023-04-06T08:56:04;16.30;53.00
13521;DHT22;6832;51.186;3.236;2023-04-06T08:58:34;16.30;53.00
13521;DHT22;6832;51.186;3.236;2023-04-06T09:01:02;16.30;53.10
13521;DHT22;6832;51.186;3.236;2023-04-06T09:03:33;16.30;53.10
13521;DHT22;6832;51.186;3.236;2023-04-06T09:06:03;16.20;53.00
13521;DHT22;6832;51.186;3.236;2023-04-06T09:08:31;16.20;53.00
13521;DHT22;6832;51.186;3.236;2023-04-06T09:10:59;16.20;53.00
13521;DHT22;6832;51.186;3.236;2023-04-06T09:13:27;16.20;53.10
13521;DHT22;6832;51.186;3.236;2023-04-06T09:16:01;16.20;53.00
13521;DHT22;6832;51.186;3.236;2023-04-06T09:18:29;16.20;53.10
13521;DHT22;6832;51.186;3.236;2023-04-06T09:20:58;16.20;53.10
13521;DHT22;6832;51.186;3.236;2023-04-06T09:23:27;16.20;53.10
13521;DHT22;6832;51.186;3.236;2023-04-06T09:26:05;16.30;53.20
13521;DHT22;6832;51.186;3.236;2023-04-06T09:28:41;16.20;53.20
13521;DHT22;6832;51.186;3.236;2023-04-06T09:31:09;16.20;53.20
13521;DHT22;6832;51.186;3.236;2023-04-06T09:33:38;16.20;53.10
13521;DHT22;6832;51.186;3.236;2023-04-06T09:36:08;16.20;53.20
13521;DHT22;6832;51.186;3.236;2023-04-06T09:38:51;16.20;53.20
13521;DHT22;6832;51.186;3.236;2023-04-06T09:41:22;16.20;53.20
13521;DHT22;6832;51.186;3.236;2023-04-06T09:43:50;16.20;53.20
13521;DHT22;6832;51.186;3.236;2023-04-06T09:46:17;16.30;53.30
13521;DHT22;6832;51.186;3.236;2023-04-06T09:48:47;16.20;53.30
13521;DHT22;6832;51.186;3.236;2023-04-06T09:51:21;16.20;53.30
13521;DHT22;6832;51.186;3.236;2023-04-06T09:53:52;16.20;53.30
13521;DHT22;6832;51.186;3.236;2023-04-06T09:56:25;16.20;53.90
13521;DHT22;6832;51.186;3.236;2023-04-06T09:59:02;16.20;53.30
13521;DHT22;6832;51.186;3.236;2023-04-06T10:01:32;16.20;53.30
13521;DHT22;6832;51.186;3.236;2023-04-06T10:04:07;16.20;53.30
13521;DHT22;6832;51.186;3.236;2023-04-06T10:06:38;16.20;53.30
13521;DHT22;6832;51.186;3.236;2023-04-06T10:09:08;16.20;53.30
13521;DHT22;6832;51.186;3.236;2023-04-06T10:11:36;16.20;53.40
13521;DHT22;6832;51.186;3.236;2023-04-06T10:14:09;16.20;53.40
13521;DHT22;6832;51.186;3.236;2023-04-06T10:16:37;16.20;53.40
13521;DHT22;6832;51.186;3.236;2023-04-06T10:19:10;16.20;53.40
13521;DHT22;6832;51.186;3.236;2023-04-06T10:21:40;16.20;53.50
13521;DHT22;6832;51.186;3.236;2023-04-06T10:24:12;16.20;53.40
13521;DHT22;6832;51.186;3.236;2023-04-06T10:26:39;16.20;53.50
13521;DHT22;6832;51.186;3.236;2023-04-06T10:29:07;16.20;53.40
13521;DHT22;6832;51.186;3.236;2023-04-06T10:31:41;16.20;53.40
13521;DHT22;6832;51.186;3.236;2023-04-06T10:34:09;16.20;53.50
13521;DHT22;6832;51.186;3.236;2023-04-06T10:36:40;16.20;53.40
13521;DHT22;6832;51.186;3.236;2023-04-06T10:39:07;16.20;53.40
13521;DHT22;6832;51.186;3.236;2023-04-06T10:41:40;16.20;53.40
13521;DHT22;6832;51.186;3.236;2023-04-06T10:44:07;16.20;53.50
13521;DHT22;6832;51.186;3.236;2023-04-06T10:46:34;16.20;53.40
13521;DHT22;6832;51.186;3.236;2023-04-06T10:49:10;16.20;53.50
13521;DHT22;6832;51.186;3.236;2023-04-06T10:51:39;16.20;53.50
13521;DHT22;6832;51.186;3.236;2023-04-06T10:54:06;16.20;53.50
13521;DHT22;6832;51.186;3.236;2023-04-06T10:56:37;16.30;53.60
13521;DHT22;6832;51.186;3.236;2023-04-06T10:59:17;16.30;53.60
13521;DHT22;6832;51.186;3.236;2023-04-06T11:01:47;16.20;53.50
13521;DHT22;6832;51.186;3.236;2023-04-06T11:04:16;16.30;53.60
13521;DHT22;6832;51.186;3.236;2023-04-06T11:06:46;16.30;53.70
13521;DHT22;6832;51.186;3.236;2023-04-06T11:09:23;16.30;53.60
13521;DHT22;6832;51.186;3.236;2023-04-06T11:11:53;16.30;53.70
13521;DHT22;6832;51.186;3.236;2023-04-06T11:14:21;16.30;53.70
13521;DHT22;6832;51.186;3.236;2023-04-06T11:16:48;16.30;53.70
13521;DHT22;6832;51.186;3.236;2023-04-06T11:19:16;16.30;53.70
13521;DHT22;6832;51.186;3.236;2023-04-06T11:21:44;16.30;54.30
13521;DHT22;6832;51.186;3.236;2023-04-06T11:24:14;16.30;53.70
13521;DHT22;6832;51.186;3.236;2023-04-06T11:26:44;16.30;53.70
13521;DHT22;6832;51.186;3.236;2023-04-06T11:29:17;16.30;53.70
13521;DHT22;6832;51.186;3.236;2023-04-06T11:31:46;16.30;53.70
13521;DHT22;6832;51.186;3.236;2023-04-06T11:34:15;16.20;53.70
13521;DHT22;6832;51.186;3.236;2023-04-06T11:36:46;16.30;53.70
13521;DHT22;6832;51.186;3.236;2023-04-06T11:39:19;16.30;53.80
13521;DHT22;6832;51.186;3.236;2023-04-06T11:41:58;16.30;53.80
13521;DHT22;6832;51.186;3.236;2023-04-06T11:44:33;16.30;53.80
13521;DHT22;6832;51.186;3.236;2023-04-06T11:47:03;16.30;53.80
13521;DHT22;6832;51.186;3.236;2023-04-06T11:49:32;16.30;53.80
13521;DHT22;6832;51.186;3.236;2023-04-06T11:52:19;16.30;53.80
13521;DHT22;6832;51.186;3.236;2023-04-06T11:54:47;16.30;53.90
13521;DHT22;6832;51.186;3.236;2023-04-06T11:57:15;16.30;53.80
13521;DHT22;6832;51.186;3.236;2023-04-06T11:59:43;16.30;53.80
13521;DHT22;6832;51.186;3.236;2023-04-06T12:02:11;16.30;53.90
13521;DHT22;6832;51.186;3.236;2023-04-06T12:04:38;16.30;53.90
13521;DHT22;6832;51.186;3.236;2023-04-06T12:07:05;16.30;53.90
13521;DHT22;6832;51.186;3.236;2023-04-06T12:09:32;16.30;53.90
13521;DHT22;6832;51.186;3.236;2023-04-06T12:12:00;16.30;53.90
13521;DHT22;6832;51.186;3.236;2023-04-06T12:14:27;16.30;53.90
13521;DHT22;6832;51.186;3.236;2023-04-06T12:16:55;16.30;53.90
13521;DHT22;6832;51.186;3.236;2023-04-06T12:19:22;16.30;53.90
13521;DHT22;6832;51.186;3.236;2023-04-06T12:21:51;16.30;54.00
13521;DHT22;6832;51.186;3.236;2023-04-06T12:24:19;16.30;54.00
13521;DHT22;6832;51.186;3.236;2023-04-06T12:26:46;16.30;54.00
13521;DHT22;6832;51.186;3.236;2023-04-06T12:29:13;16.30;54.00
13521;DHT22;6832;51.186;3.236;2023-04-06T12:31:40;16.30;54.00
13521;DHT22;6832;51.186;3.236;2023-04-06T12:34:11;16.30;54.00
13521;DHT22;6832;51.186;3.236;2023-04-06T12:36:38;16.30;54.10
13521;DHT22;6832;51.186;3.236;2023-04-06T12:39:06;16.30;54.00
13521;DHT22;6832;51.186;3.236;2023-04-06T12:41:33;16.30;54.10
13521;DHT22;6832;51.186;3.236;2023-04-06T12:44:00;16.30;54.00
13521;DHT22;6832;51.186;3.236;2023-04-06T12:46:27;16.40;54.20
13521;DHT22;6832;51.186;3.236;2023-04-06T12:48:56;16.30;54.10
13521;DHT22;6832;51.186;3.236;2023-04-06T12:51:27;16.40;54.20
13521;DHT22;6832;51.186;3.236;2023-04-06T12:53:54;16.40;54.20
13521;DHT22;6832;51.186;3.236;2023-04-06T12:56:22;16.40;54.20
13521;DHT22;6832;51.186;3.236;2023-04-06T12:58:51;16.40;54.30
13521;DHT22;6832;51.186;3.236;2023-04-06T13:01:18;16.40;54.30
13521;DHT22;6832;51.186;3.236;2023-04-06T13:03:45;16.40;54.30
13521;DHT22;6832;51.186;3.236;2023-04-06T13:06:18;16.40;54.30
13521;DHT22;6832;51.186;3.236;2023-04-06T13:08:47;16.40;54.30
13521;DHT22;6832;51.186;3.236;2023-04-06T13:11:15;16.40;54.30
13521;DHT22;6832;51.186;3.236;2023-04-06T13:13:42;16.40;54.30
13521;DHT22;6832;51.186;3.236;2023-04-06T13:16:09;16.40;54.30
13521;DHT22;6832;51.186;3.236;2023-04-06T13:18:37;16.40;54.30
13521;DHT22;6832;51.186;3.236;2023-04-06T13:21:04;16.50;54.40
13521;DHT22;6832;51.186;3.236;2023-04-06T13:23:31;16.40;54.40
13521;DHT22;6832;51.186;3.236;2023-04-06T13:26:02;16.40;54.30
13521;DHT22;6832;51.186;3.236;2023-04-06T13:28:30;16.40;54.40
13521;DHT22;6832;51.186;3.236;2023-04-06T13:30:58;16.40;54.30
13521;DHT22;6832;51.186;3.236;2023-04-06T13:33:29;16.50;54.40
13521;DHT22;6832;51.186;3.236;2023-04-06T13:35:57;16.40;54.40
13521;DHT22;6832;51.186;3.236;2023-04-06T13:38:24;16.50;54.50
13521;DHT22;6832;51.186;3.236;2023-04-06T13:40:52;16.50;54.40
13521;DHT22;6832;51.186;3.236;2023-04-06T13:43:21;16.50;54.60
13521;DHT22;6832;51.186;3.236;2023-04-06T13:45:54;16.50;54.60
13521;DHT22;6832;51.186;3.236;2023-04-06T13:48:25;16.50;54.60
13521;DHT22;6832;51.186;3.236;2023-04-06T13:50:52;16.50;54.50
13521;DHT22;6832;51.186;3.236;2023-04-06T13:53:19;16.50;54.50
13521;DHT22;6832;51.186;3.236;2023-04-06T13:55:52;16.50;54.60
13521;DHT22;6832;51.186;3.236;2023-04-06T13:58:21;16.50;54.60
13521;DHT22;6832;51.186;3.236;2023-04-06T14:00:48;16.50;54.60
13521;DHT22;6832;51.186;3.236;2023-04-06T14:03:15;16.50;54.60
13521;DHT22;6832;51.186;3.236;2023-04-06T14:05:42;16.50;54.60
13521;DHT22;6832;51.186;3.236;2023-04-06T14:08:11;16.50;54.60
13521;DHT22;6832;51.186;3.236;2023-04-06T14:10:38;16.50;54.60
13521;DHT22;6832;51.186;3.236;2023-04-06T14:13:05;16.50;54.60
13521;DHT22;6832;51.186;3.236;2023-04-06T14:15:34;16.50;54.60
13521;DHT22;6832;51.186;3.236;2023-04-06T14:18:01;16.60;54.60
13521;DHT22;6832;51.186;3.236;2023-04-06T14:20:30;16.60;54.60
13521;DHT22;6832;51.186;3.236;2023-04-06T14:22:59;16.60;54.60
13521;DHT22;6832;51.186;3.236;2023-04-06T14:25:26;16.60;54.70
13521;DHT22;6832;51.186;3.236;2023-04-06T14:27:53;16.60;54.60
13521;DHT22;6832;51.186;3.236;2023-04-06T14:30:23;16.60;54.60
13521;DHT22;6832;51.186;3.236;2023-04-06T14:32:56;16.60;54.60
13521;DHT22;6832;51.186;3.236;2023-04-06T14:35:25;16.60;54.70
13521;DHT22;6832;51.186;3.236;2023-04-06T14:37:53;16.70;54.70
13521;DHT22;6832;51.186;3.236;2023-04-06T14:40:20;16.60;54.60
13521;DHT22;6832;51.186;3.236;2023-04-06T14:42:48;16.60;54.70
13521;DHT22;6832;51.186;3.236;2023-04-06T14:45:16;16.60;54.70
13521;DHT22;6832;51.186;3.236;2023-04-06T14:47:45;16.60;54.60
13521;DHT22;6832;51.186;3.236;2023-04-06T14:50:13;16.70;54.70
13521;DHT22;6832;51.186;3.236;2023-04-06T14:52:40;16.60;54.60
13521;DHT22;6832;51.186;3.236;2023-04-06T14:55:07;16.70;54.70
13521;DHT22;6832;51.186;3.236;2023-04-06T14:57:34;16.60;54.60
13521;DHT22;6832;51.186;3.236;2023-04-06T15:00:02;16.70;54.70
13521;DHT22;6832;51.186;3.236;2023-04-06T15:02:29;16.70;54.70
13521;DHT22;6832;51.186;3.236;2023-04-06T15:04:57;16.70;54.70
13521;DHT22;6832;51.186;3.236;2023-04-06T15:07:25;16.70;54.70
13521;DHT22;6832;51.186;3.236;2023-04-06T15:09:52;16.70;54.70
13521;DHT22;6832;51.186;3.236;2023-04-06T15:12:19;16.70;54.70
13521;DHT22;6832;51.186;3.236;2023-04-06T15:14:46;16.70;54.70
13521;DHT22;6832;51.186;3.236;2023-04-06T15:17:13;16.70;54.70
13521;DHT22;6832;51.186;3.236;2023-04-06T15:19:40;16.70;54.70
13521;DHT22;6832;51.186;3.236;2023-04-06T15:22:07;16.70;54.70
13521;DHT22;6832;51.186;3.236;2023-04-06T15:24:35;16.70;54.70
13521;DHT22;6832;51.186;3.236;2023-04-06T15:27:02;16.70;54.70
13521;DHT22;6832;51.186;3.236;2023-04-06T15:29:30;16.70;54.70
13521;DHT22;6832;51.186;3.236;2023-04-06T15:31:57;16.70;54.70
13521;DHT22;6832;51.186;3.236;2023-04-06T15:34:24;16.70;54.70
13521;DHT22;6832;51.186;3.236;2023-04-06T15:36:51;16.70;55.30
13521;DHT22;6832;51.186;3.236;2023-04-06T15:39:18;16.70;54.70
13521;DHT22;6832;51.186;3.236;2023-04-06T15:41:46;16.80;54.80
13521;DHT22;6832;51.186;3.236;2023-04-06T15:44:13;16.80;54.80
13521;DHT22;6832;51.186;3.236;2023-04-06T15:46:40;16.80;54.80
13521;DHT22;6832;51.186;3.236;2023-04-06T15:49:07;16.80;54.80
13521;DHT22;6832;51.186;3.236;2023-04-06T15:51:35;16.80;54.80